KBKB

Fullerton Landing Strip Airport

Louisiana, USA
METAR KBKB 241954Z AUTO 19008G20KT 100V250 10SM FEW037 SCT060 28/19 A2988 RMK AO2 SLP143 T02780189 $
Observed Flight Rules
Feb-24 @ 19:54 UTC (18 minutes ago) Visual Flight Rules
Wind Visibility Clouds
190° at 8 knots
 Gusting to 20 knots
10 miles
  • Few at 3,700' AGL
  • Scattered at 6,000' AGL
Temperatures Readings
Current 28°C / 82°F
Dewpoint 19°C / 66°F
Humidity 58%
Altimeter 29.88" Hg
Pressure 1014.3 hPa
Elevation 94
METAR KBKB 241954Z AUTO 19008G20KT 100V250 10SM FEW037 SCT060 28/19 A2988 RMK AO2 SLP143 T02780189 $
Observed Flight Rules
Feb-24 @ 19:54 UTC
(18 minutes ago)
VFR
Wind Visibility
190° at 8 knots
 Gusting to 20 knots
10 miles
Clouds
  • Few at 3,700' AGL
  • Scattered at 6,000' AGL
Temperature Dewpoint
28°C / 82°F 19°C / 66°F
Humidity Altimeter Pressure
58% 29.88" Hg 1014.3 hPa